sensor_id;sensor_type;location;lat;lon;timestamp;temperature;humidity
8872;DHT22;4472;52.092;9.820;2022-12-13T00:00:04;-5.40;99.90
8872;DHT22;4472;52.092;9.820;2022-12-13T00:02:53;-5.50;99.90
8872;DHT22;4472;52.092;9.820;2022-12-13T00:05:44;-5.60;99.90
8872;DHT22;4472;52.092;9.820;2022-12-13T00:08:32;-5.60;99.90
8872;DHT22;4472;52.092;9.820;2022-12-13T00:11:19;-5.70;99.90
8872;DHT22;4472;52.092;9.820;2022-12-13T00:14:06;-5.70;99.90
8872;DHT22;4472;52.092;9.820;2022-12-13T00:16:54;-5.80;99.90
8872;DHT22;4472;52.092;9.820;2022-12-13T00:19:41;-5.90;99.90
8872;DHT22;4472;52.092;9.820;2022-12-13T00:22:29;-5.90;99.90
8872;DHT22;4472;52.092;9.820;2022-12-13T00:25:17;-6.00;99.90
8872;DHT22;4472;52.092;9.820;2022-12-13T00:28:06;-6.10;99.90
8872;DHT22;4472;52.092;9.820;2022-12-13T00:30:56;-6.10;99.90
8872;DHT22;4472;52.092;9.820;2022-12-13T00:33:43;-6.10;99.90
8872;DHT22;4472;52.092;9.820;2022-12-13T00:36:30;-6.10;99.90
8872;DHT22;4472;52.092;9.820;2022-12-13T00:39:19;-6.20;99.90
8872;DHT22;4472;52.092;9.820;2022-12-13T00:42:06;-6.20;99.90
8872;DHT22;4472;52.092;9.820;2022-12-13T00:44:53;-6.30;99.90
8872;DHT22;4472;52.092;9.820;2022-12-13T00:47:40;-6.30;99.90
8872;DHT22;4472;52.092;9.820;2022-12-13T00:50:28;-6.30;99.90
8872;DHT22;4472;52.092;9.820;2022-12-13T00:53:15;-6.40;99.90
8872;DHT22;4472;52.092;9.820;2022-12-13T00:56:08;-6.40;99.90
8872;DHT22;4472;52.092;9.820;2022-12-13T00:58:56;-6.40;99.90
8872;DHT22;4472;52.092;9.820;2022-12-13T01:01:43;-6.30;99.90
8872;DHT22;4472;52.092;9.820;2022-12-13T01:04:31;-6.40;99.90
8872;DHT22;4472;52.092;9.820;2022-12-13T01:07:18;-6.40;99.90
8872;DHT22;4472;52.092;9.820;2022-12-13T01:10:06;-6.40;99.90
8872;DHT22;4472;52.092;9.820;2022-12-13T01:12:55;-6.50;99.90
8872;DHT22;4472;52.092;9.820;2022-12-13T01:15:43;-6.50;99.90
8872;DHT22;4472;52.092;9.820;2022-12-13T01:18:31;-6.50;99.90
8872;DHT22;4472;52.092;9.820;2022-12-13T01:21:19;-6.60;99.90
8872;DHT22;4472;52.092;9.820;2022-12-13T01:24:06;-6.60;99.90
8872;DHT22;4472;52.092;9.820;2022-12-13T01:26:54;-6.60;99.90
8872;DHT22;4472;52.092;9.820;2022-12-13T01:29:43;-6.60;99.90
8872;DHT22;4472;52.092;9.820;2022-12-13T01:32:30;-6.60;99.90
8872;DHT22;4472;52.092;9.820;2022-12-13T01:35:17;-6.50;99.90
8872;DHT22;4472;52.092;9.820;2022-12-13T01:38:04;-6.40;99.90
8872;DHT22;4472;52.092;9.820;2022-12-13T01:40:52;-6.40;99.90
8872;DHT22;4472;52.092;9.820;2022-12-13T01:43:55;-6.30;99.90
8872;DHT22;4472;52.092;9.820;2022-12-13T01:46:47;-6.10;99.90
8872;DHT22;4472;52.092;9.820;2022-12-13T01:49:34;-6.00;99.90
8872;DHT22;4472;52.092;9.820;2022-12-13T01:52:21;-5.90;99.90
8872;DHT22;4472;52.092;9.820;2022-12-13T01:55:10;-5.90;99.90
8872;DHT22;4472;52.092;9.820;2022-12-13T01:58:00;-5.80;99.90
8872;DHT22;4472;52.092;9.820;2022-12-13T02:00:49;-5.80;99.90
8872;DHT22;4472;52.092;9.820;2022-12-13T02:03:38;-5.80;99.90
8872;DHT22;4472;52.092;9.820;2022-12-13T02:06:29;-5.80;99.90
8872;DHT22;4472;52.092;9.820;2022-12-13T02:09:18;-5.80;99.90
8872;DHT22;4472;52.092;9.820;2022-12-13T02:12:06;-5.80;99.90
8872;DHT22;4472;52.092;9.820;2022-12-13T02:14:54;-5.80;99.90
8872;DHT22;4472;52.092;9.820;2022-12-13T02:18:03;-5.80;99.90
8872;DHT22;4472;52.092;9.820;2022-12-13T02:24:22;-5.70;99.90
8872;DHT22;4472;52.092;9.820;2022-12-13T02:30:25;-5.60;99.90
8872;DHT22;4472;52.092;9.820;2022-12-13T02:33:26;-5.60;99.90
8872;DHT22;4472;52.092;9.820;2022-12-13T02:36:21;-5.60;99.90
8872;DHT22;4472;52.092;9.820;2022-12-13T02:39:15;-5.50;99.90
8872;DHT22;4472;52.092;9.820;2022-12-13T02:42:05;-5.50;99.90
8872;DHT22;4472;52.092;9.820;2022-12-13T02:44:57;-5.50;99.90
8872;DHT22;4472;52.092;9.820;2022-12-13T02:47:51;-5.40;99.90
8872;DHT22;4472;52.092;9.820;2022-12-13T02:50:40;-5.40;99.90
8872;DHT22;4472;52.092;9.820;2022-12-13T02:53:29;-5.40;99.90
8872;DHT22;4472;52.092;9.820;2022-12-13T02:56:17;-5.40;99.90
8872;DHT22;4472;52.092;9.820;2022-12-13T02:59:08;-5.40;99.90
8872;DHT22;4472;52.092;9.820;2022-12-13T03:02:03;-5.40;99.90
8872;DHT22;4472;52.092;9.820;2022-12-13T03:05:03;-5.40;99.90
8872;DHT22;4472;52.092;9.820;2022-12-13T03:08:17;-5.40;99.90
8872;DHT22;4472;52.092;9.820;2022-12-13T03:11:08;-5.30;99.90
8872;DHT22;4472;52.092;9.820;2022-12-13T03:13:59;-5.30;99.90
8872;DHT22;4472;52.092;9.820;2022-12-13T03:16:49;-5.30;99.90
8872;DHT22;4472;52.092;9.820;2022-12-13T03:19:38;-5.40;99.90
8872;DHT22;4472;52.092;9.820;2022-12-13T03:22:27;-5.40;99.90
8872;DHT22;4472;52.092;9.820;2022-12-13T03:25:14;-5.40;99.90
8872;DHT22;4472;52.092;9.820;2022-12-13T03:28:01;-5.40;99.90
8872;DHT22;4472;52.092;9.820;2022-12-13T03:30:48;-5.40;99.90
8872;DHT22;4472;52.092;9.820;2022-12-13T03:33:36;-5.50;99.90
8872;DHT22;4472;52.092;9.820;2022-12-13T03:36:24;-5.50;99.90
8872;DHT22;4472;52.092;9.820;2022-12-13T03:39:13;-5.50;99.90
8872;DHT22;4472;52.092;9.820;2022-12-13T03:42:00;-5.50;99.90
8872;DHT22;4472;52.092;9.820;2022-12-13T03:44:48;-5.50;99.90
8872;DHT22;4472;52.092;9.820;2022-12-13T03:47:35;-5.50;99.90
8872;DHT22;4472;52.092;9.820;2022-12-13T03:50:22;-5.50;99.90
8872;DHT22;4472;52.092;9.820;2022-12-13T03:53:09;-5.50;99.90
8872;DHT22;4472;52.092;9.820;2022-12-13T03:55:58;-5.50;99.90
8872;DHT22;4472;52.092;9.820;2022-12-13T03:58:45;-5.50;99.90
8872;DHT22;4472;52.092;9.820;2022-12-13T04:01:33;-5.50;99.90
8872;DHT22;4472;52.092;9.820;2022-12-13T04:04:29;-5.50;99.90
8872;DHT22;4472;52.092;9.820;2022-12-13T04:07:17;-5.50;99.90
8872;DHT22;4472;52.092;9.820;2022-12-13T04:10:05;-5.50;99.90
8872;DHT22;4472;52.092;9.820;2022-12-13T04:12:54;-5.50;99.90
8872;DHT22;4472;52.092;9.820;2022-12-13T04:15:59;-5.50;99.90
8872;DHT22;4472;52.092;9.820;2022-12-13T04:18:46;-5.50;99.90
8872;DHT22;4472;52.092;9.820;2022-12-13T04:21:33;-5.60;99.90
8872;DHT22;4472;52.092;9.820;2022-12-13T04:24:21;-5.60;99.90
8872;DHT22;4472;52.092;9.820;2022-12-13T04:27:08;-5.60;99.90
8872;DHT22;4472;52.092;9.820;2022-12-13T04:29:56;-5.70;99.90
8872;DHT22;4472;52.092;9.820;2022-12-13T04:32:44;-5.70;99.90
8872;DHT22;4472;52.092;9.820;2022-12-13T04:35:31;-5.80;99.90
8872;DHT22;4472;52.092;9.820;2022-12-13T04:38:18;-5.90;99.90
8872;DHT22;4472;52.092;9.820;2022-12-13T04:41:06;-5.90;99.90
8872;DHT22;4472;52.092;9.820;2022-12-13T04:43:54;-6.00;99.90
8872;DHT22;4472;52.092;9.820;2022-12-13T04:46:43;-6.00;99.90
8872;DHT22;4472;52.092;9.820;2022-12-13T04:49:30;-6.10;99.90
8872;DHT22;4472;52.092;9.820;2022-12-13T04:52:18;-6.20;99.90
8872;DHT22;4472;52.092;9.820;2022-12-13T04:55:06;-6.20;99.90
8872;DHT22;4472;52.092;9.820;2022-12-13T04:57:53;-6.30;99.90
8872;DHT22;4472;52.092;9.820;2022-12-13T05:00:41;-6.30;99.90
8872;DHT22;4472;52.092;9.820;2022-12-13T05:03:29;-6.40;99.90
8872;DHT22;4472;52.092;9.820;2022-12-13T05:06:16;-6.50;99.90
8872;DHT22;4472;52.092;9.820;2022-12-13T05:09:03;-6.50;99.90
8872;DHT22;4472;52.092;9.820;2022-12-13T05:11:52;-6.60;99.90
8872;DHT22;4472;52.092;9.820;2022-12-13T05:14:39;-6.70;99.90
8872;DHT22;4472;52.092;9.820;2022-12-13T05:17:27;-6.80;99.90
8872;DHT22;4472;52.092;9.820;2022-12-13T05:20:15;-6.80;99.90
8872;DHT22;4472;52.092;9.820;2022-12-13T05:23:02;-6.80;99.90
8872;DHT22;4472;52.092;9.820;2022-12-13T05:25:50;-6.90;99.90
8872;DHT22;4472;52.092;9.820;2022-12-13T05:28:37;-6.90;99.90
8872;DHT22;4472;52.092;9.820;2022-12-13T05:31:24;-6.90;99.90
8872;DHT22;4472;52.092;9.820;2022-12-13T05:34:12;-7.00;99.90
8872;DHT22;4472;52.092;9.820;2022-12-13T05:37:01;-7.00;99.90
8872;DHT22;4472;52.092;9.820;2022-12-13T05:39:48;-7.00;99.90
8872;DHT22;4472;52.092;9.820;2022-12-13T05:42:36;-7.00;99.90
8872;DHT22;4472;52.092;9.820;2022-12-13T05:45:23;-7.00;99.90
8872;DHT22;4472;52.092;9.820;2022-12-13T05:48:11;-7.10;99.90
8872;DHT22;4472;52.092;9.820;2022-12-13T05:50:58;-7.10;99.90
8872;DHT22;4472;52.092;9.820;2022-12-13T05:53:46;-7.20;99.90
8872;DHT22;4472;52.092;9.820;2022-12-13T05:56:34;-7.20;99.90
8872;DHT22;4472;52.092;9.820;2022-12-13T05:59:21;-7.20;99.90
8872;DHT22;4472;52.092;9.820;2022-12-13T06:02:08;-7.30;99.90
8872;DHT22;4472;52.092;9.820;2022-12-13T06:04:55;-7.30;99.90
8872;DHT22;4472;52.092;9.820;2022-12-13T06:07:43;-7.30;99.90
8872;DHT22;4472;52.092;9.820;2022-12-13T06:10:31;-7.30;99.90
8872;DHT22;4472;52.092;9.820;2022-12-13T06:13:18;-7.30;99.90
8872;DHT22;4472;52.092;9.820;2022-12-13T06:16:06;-7.30;99.90
8872;DHT22;4472;52.092;9.820;2022-12-13T06:18:54;-7.30;99.90
8872;DHT22;4472;52.092;9.820;2022-12-13T06:21:42;-7.30;99.90
8872;DHT22;4472;52.092;9.820;2022-12-13T06:24:29;-7.40;99.90
8872;DHT22;4472;52.092;9.820;2022-12-13T06:27:18;-7.40;99.90
8872;DHT22;4472;52.092;9.820;2022-12-13T06:30:05;-7.50;99.90
8872;DHT22;4472;52.092;9.820;2022-12-13T06:32:53;-7.50;99.90
8872;DHT22;4472;52.092;9.820;2022-12-13T06:35:40;-7.50;99.90
8872;DHT22;4472;52.092;9.820;2022-12-13T06:38:27;-7.50;99.90
8872;DHT22;4472;52.092;9.820;2022-12-13T06:41:15;-7.50;99.90
8872;DHT22;4472;52.092;9.820;2022-12-13T06:44:04;-7.50;99.90
8872;DHT22;4472;52.092;9.820;2022-12-13T06:46:51;-7.50;99.90
8872;DHT22;4472;52.092;9.820;2022-12-13T06:49:40;-7.50;99.90
8872;DHT22;4472;52.092;9.820;2022-12-13T06:52:28;-7.50;99.90
8872;DHT22;4472;52.092;9.820;2022-12-13T06:55:15;-7.40;99.90
8872;DHT22;4472;52.092;9.820;2022-12-13T06:58:02;-7.40;99.90
8872;DHT22;4472;52.092;9.820;2022-12-13T07:01:00;-7.30;99.90
8872;DHT22;4472;52.092;9.820;2022-12-13T07:03:47;-7.30;99.90
8872;DHT22;4472;52.092;9.820;2022-12-13T07:06:35;-7.20;99.90
8872;DHT22;4472;52.092;9.820;2022-12-13T07:09:22;-7.10;99.90
8872;DHT22;4472;52.092;9.820;2022-12-13T07:12:09;-7.10;99.90
8872;DHT22;4472;52.092;9.820;2022-12-13T07:14:56;-7.00;99.90
8872;DHT22;4472;52.092;9.820;2022-12-13T07:17:48;-6.90;99.90
8872;DHT22;4472;52.092;9.820;2022-12-13T07:20:37;-6.70;99.90
8872;DHT22;4472;52.092;9.820;2022-12-13T07:23:25;-6.70;99.90
8872;DHT22;4472;52.092;9.820;2022-12-13T07:26:12;-6.60;99.90
8872;DHT22;4472;52.092;9.820;2022-12-13T07:29:01;-6.50;99.90
8872;DHT22;4472;52.092;9.820;2022-12-13T07:31:48;-6.40;99.90
8872;DHT22;4472;52.092;9.820;2022-12-13T07:34:37;-6.40;99.90
8872;DHT22;4472;52.092;9.820;2022-12-13T07:37:24;-6.40;99.90
8872;DHT22;4472;52.092;9.820;2022-12-13T07:40:11;-6.30;99.90
8872;DHT22;4472;52.092;9.820;2022-12-13T07:42:59;-6.30;99.90
8872;DHT22;4472;52.092;9.820;2022-12-13T07:45:46;-6.20;99.90
8872;DHT22;4472;52.092;9.820;2022-12-13T07:48:33;-6.20;99.90
8872;DHT22;4472;52.092;9.820;2022-12-13T07:51:22;-6.20;99.90
8872;DHT22;4472;52.092;9.820;2022-12-13T07:54:10;-6.10;99.90
8872;DHT22;4472;52.092;9.820;2022-12-13T07:56:57;-6.10;99.90
8872;DHT22;4472;52.092;9.820;2022-12-13T07:59:44;-6.00;99.90
8872;DHT22;4472;52.092;9.820;2022-12-13T08:02:31;-6.00;99.90
8872;DHT22;4472;52.092;9.820;2022-12-13T08:05:19;-6.00;99.90
8872;DHT22;4472;52.092;9.820;2022-12-13T08:08:08;-5.90;99.90
8872;DHT22;4472;52.092;9.820;2022-12-13T08:11:02;-5.90;99.90
8872;DHT22;4472;52.092;9.820;2022-12-13T08:13:49;-5.90;99.90
8872;DHT22;4472;52.092;9.820;2022-12-13T08:16:36;-5.80;99.90
8872;DHT22;4472;52.092;9.820;2022-12-13T08:19:24;-5.80;99.90
8872;DHT22;4472;52.092;9.820;2022-12-13T08:22:11;-5.70;99.90
8872;DHT22;4472;52.092;9.820;2022-12-13T08:25:00;-5.70;99.90
8872;DHT22;4472;52.092;9.820;2022-12-13T08:27:48;-5.70;99.90
8872;DHT22;4472;52.092;9.820;2022-12-13T08:30:35;-5.80;99.90
8872;DHT22;4472;52.092;9.820;2022-12-13T08:33:22;-5.70;99.90
8872;DHT22;4472;52.092;9.820;2022-12-13T08:36:10;-5.60;99.90
8872;DHT22;4472;52.092;9.820;2022-12-13T08:38:58;-5.60;99.90
8872;DHT22;4472;52.092;9.820;2022-12-13T08:41:49;-5.60;99.90
8872;DHT22;4472;52.092;9.820;2022-12-13T08:44:36;-5.40;99.90
8872;DHT22;4472;52.092;9.820;2022-12-13T08:47:24;-5.40;99.90
8872;DHT22;4472;52.092;9.820;2022-12-13T08:50:12;-5.40;99.90
8872;DHT22;4472;52.092;9.820;2022-12-13T08:52:59;-5.40;99.90
8872;DHT22;4472;52.092;9.820;2022-12-13T08:55:46;-5.30;99.90
8872;DHT22;4472;52.092;9.820;2022-12-13T08:58:35;-5.30;99.90
8872;DHT22;4472;52.092;9.820;2022-12-13T09:01:22;-5.20;99.90
8872;DHT22;4472;52.092;9.820;2022-12-13T09:04:09;-5.10;99.90
8872;DHT22;4472;52.092;9.820;2022-12-13T09:06:57;-5.00;99.90
8872;DHT22;4472;52.092;9.820;2022-12-13T09:09:44;-4.90;99.90
8872;DHT22;4472;52.092;9.820;2022-12-13T09:12:31;-4.80;99.90
8872;DHT22;4472;52.092;9.820;2022-12-13T09:15:19;-4.70;99.90
8872;DHT22;4472;52.092;9.820;2022-12-13T09:18:07;-4.70;99.90
8872;DHT22;4472;52.092;9.820;2022-12-13T09:20:54;-4.60;99.90
8872;DHT22;4472;52.092;9.820;2022-12-13T09:23:41;-4.50;99.90
8872;DHT22;4472;52.092;9.820;2022-12-13T09:26:28;-4.40;99.90
8872;DHT22;4472;52.092;9.820;2022-12-13T09:29:15;-4.30;99.90
8872;DHT22;4472;52.092;9.820;2022-12-13T09:32:04;-4.20;99.90
8872;DHT22;4472;52.092;9.820;2022-12-13T09:34:52;-4.10;99.90
8872;DHT22;4472;52.092;9.820;2022-12-13T09:37:39;-4.00;99.90
8872;DHT22;4472;52.092;9.820;2022-12-13T09:40:28;-4.00;99.90
8872;DHT22;4472;52.092;9.820;2022-12-13T09:43:21;-3.90;99.90
8872;DHT22;4472;52.092;9.820;2022-12-13T09:46:24;-3.80;99.90
8872;DHT22;4472;52.092;9.820;2022-12-13T09:49:16;-3.70;99.90
8872;DHT22;4472;52.092;9.820;2022-12-13T09:52:05;-3.60;99.90
8872;DHT22;4472;52.092;9.820;2022-12-13T09:54:55;-3.50;99.90
8872;DHT22;4472;52.092;9.820;2022-12-13T09:57:43;-3.40;99.90
8872;DHT22;4472;52.092;9.820;2022-12-13T10:00:33;-3.30;99.90
8872;DHT22;4472;52.092;9.820;2022-12-13T10:03:22;-3.20;99.90
8872;DHT22;4472;52.092;9.820;2022-12-13T10:06:14;-3.10;99.90
8872;DHT22;4472;52.092;9.820;2022-12-13T10:09:01;-3.00;99.90
8872;DHT22;4472;52.092;9.820;2022-12-13T10:11:52;-2.90;99.90
8872;DHT22;4472;52.092;9.820;2022-12-13T10:14:45;-2.80;99.90
8872;DHT22;4472;52.092;9.820;2022-12-13T10:17:37;-2.70;99.90
8872;DHT22;4472;52.092;9.820;2022-12-13T10:20:27;-2.70;99.90
8872;DHT22;4472;52.092;9.820;2022-12-13T10:23:17;-2.60;99.90
8872;DHT22;4472;52.092;9.820;2022-12-13T10:26:08;-2.50;99.90
8872;DHT22;4472;52.092;9.820;2022-12-13T10:29:01;-2.40;99.90
8872;DHT22;4472;52.092;9.820;2022-12-13T10:31:50;-2.40;99.90
8872;DHT22;4472;52.092;9.820;2022-12-13T10:34:38;-2.30;99.90
8872;DHT22;4472;52.092;9.820;2022-12-13T10:37:28;-2.30;99.90
8872;DHT22;4472;52.092;9.820;2022-12-13T10:40:25;-2.20;99.90
8872;DHT22;4472;52.092;9.820;2022-12-13T10:43:14;-2.20;99.90
8872;DHT22;4472;52.092;9.820;2022-12-13T10:46:02;-2.10;99.90
8872;DHT22;4472;52.092;9.820;2022-12-13T10:48:50;-2.10;99.90
8872;DHT22;4472;52.092;9.820;2022-12-13T10:51:38;-2.00;99.90
8872;DHT22;4472;52.092;9.820;2022-12-13T10:54:28;-2.00;99.90
8872;DHT22;4472;52.092;9.820;2022-12-13T10:57:17;-2.00;99.90
8872;DHT22;4472;52.092;9.820;2022-12-13T11:00:36;-1.90;99.90
8872;DHT22;4472;52.092;9.820;2022-12-13T11:03:31;-1.90;99.90
8872;DHT22;4472;52.092;9.820;2022-12-13T11:06:19;-1.80;99.90
8872;DHT22;4472;52.092;9.820;2022-12-13T11:09:13;-1.50;99.90
8872;DHT22;4472;52.092;9.820;2022-12-13T11:12:03;-1.70;99.90
8872;DHT22;4472;52.092;9.820;2022-12-13T11:14:55;-1.70;99.90
8872;DHT22;4472;52.092;9.820;2022-12-13T11:17:47;-1.70;99.90
8872;DHT22;4472;52.092;9.820;2022-12-13T11:20:37;-1.70;99.90
8872;DHT22;4472;52.092;9.820;2022-12-13T11:23:35;-1.70;99.90
8872;DHT22;4472;52.092;9.820;2022-12-13T11:26:24;-1.30;99.90
8872;DHT22;4472;52.092;9.820;2022-12-13T11:29:27;-1.60;99.90
8872;DHT22;4472;52.092;9.820;2022-12-13T11:32:25;-1.60;99.90
8872;DHT22;4472;52.092;9.820;2022-12-13T11:35:20;-0.50;99.90
8872;DHT22;4472;52.092;9.820;2022-12-13T11:38:15;-1.60;99.90
8872;DHT22;4472;52.092;9.820;2022-12-13T11:41:10;-1.60;99.90
8872;DHT22;4472;52.092;9.820;2022-12-13T11:44:03;-1.60;99.90
8872;DHT22;4472;52.092;9.820;2022-12-13T11:46:55;-1.60;99.90
8872;DHT22;4472;52.092;9.820;2022-12-13T11:49:45;-1.40;99.90
8872;DHT22;4472;52.092;9.820;2022-12-13T11:52:37;-1.50;99.90
8872;DHT22;4472;52.092;9.820;2022-12-13T11:55:33;0.10;99.90
8872;DHT22;4472;52.092;9.820;2022-12-13T11:58:26;-1.50;99.90
8872;DHT22;4472;52.092;9.820;2022-12-13T12:01:20;-1.50;99.90
8872;DHT22;4472;52.092;9.820;2022-12-13T12:04:14;-1.40;99.90
8872;DHT22;4472;52.092;9.820;2022-12-13T12:07:06;-1.40;99.90
8872;DHT22;4472;52.092;9.820;2022-12-13T12:10:00;-0.90;99.90
8872;DHT22;4472;52.092;9.820;2022-12-13T12:12:54;-1.30;99.90
8872;DHT22;4472;52.092;9.820;2022-12-13T12:15:47;-0.30;99.90
8872;DHT22;4472;52.092;9.820;2022-12-13T12:18:36;-1.10;99.90
8872;DHT22;4472;52.092;9.820;2022-12-13T12:21:33;-1.10;99.90
8872;DHT22;4472;52.092;9.820;2022-12-13T12:24:27;-1.00;99.90
8872;DHT22;4472;52.092;9.820;2022-12-13T12:27:24;-1.00;99.90
8872;DHT22;4472;52.092;9.820;2022-12-13T12:30:20;-0.90;99.90
8872;DHT22;4472;52.092;9.820;2022-12-13T12:33:14;-0.80;99.90
8872;DHT22;4472;52.092;9.820;2022-12-13T12:36:20;-0.80;99.90
8872;DHT22;4472;52.092;9.820;2022-12-13T12:39:27;-0.70;99.90
8872;DHT22;4472;52.092;9.820;2022-12-13T12:42:32;-0.70;99.90
8872;DHT22;4472;52.092;9.820;2022-12-13T12:45:32;-0.70;99.90
8872;DHT22;4472;52.092;9.820;2022-12-13T12:48:49;-0.70;99.90
8872;DHT22;4472;52.092;9.820;2022-12-13T12:51:48;-0.60;99.90
8872;DHT22;4472;52.092;9.820;2022-12-13T12:54:43;-0.50;99.90
8872;DHT22;4472;52.092;9.820;2022-12-13T12:57:42;2.00;99.90
8872;DHT22;4472;52.092;9.820;2022-12-13T13:00:41;-0.60;99.90
8872;DHT22;4472;52.092;9.820;2022-12-13T13:03:34;0.10;99.90
8872;DHT22;4472;52.092;9.820;2022-12-13T13:06:27;-0.50;99.90
8872;DHT22;4472;52.092;9.820;2022-12-13T13:09:16;-0.50;99.90
8872;DHT22;4472;52.092;9.820;2022-12-13T13:12:06;-0.50;99.90
8872;DHT22;4472;52.092;9.820;2022-12-13T13:14:55;-0.50;99.90
8872;DHT22;4472;52.092;9.820;2022-12-13T13:17:45;-0.50;99.90
8872;DHT22;4472;52.092;9.820;2022-12-13T13:20:33;-0.50;99.90
8872;DHT22;4472;52.092;9.820;2022-12-13T13:23:20;-0.50;99.90
8872;DHT22;4472;52.092;9.820;2022-12-13T13:26:08;-0.50;99.90
8872;DHT22;4472;52.092;9.820;2022-12-13T13:32:29;-0.50;99.90
8872;DHT22;4472;52.092;9.820;2022-12-13T13:35:50;-0.40;99.90
8872;DHT22;4472;52.092;9.820;2022-12-13T13:38:50;-0.50;99.90
8872;DHT22;4472;52.092;9.820;2022-12-13T13:41:39;-0.50;99.90
8872;DHT22;4472;52.092;9.820;2022-12-13T13:44:53;-0.40;99.90
8872;DHT22;4472;52.092;9.820;2022-12-13T13:47:41;-0.50;99.90
8872;DHT22;4472;52.092;9.820;2022-12-13T13:57:57;-0.50;99.90
8872;DHT22;4472;52.092;9.820;2022-12-13T14:04:39;-0.10;99.90
8872;DHT22;4472;52.092;9.820;2022-12-13T14:08:12;0.20;99.90
8872;DHT22;4472;52.092;9.820;2022-12-13T14:11:44;-0.70;99.90
8872;DHT22;4472;52.092;9.820;2022-12-13T14:15:14;-0.80;99.90
8872;DHT22;4472;52.092;9.820;2022-12-13T14:18:55;-0.70;99.90
8872;DHT22;4472;52.092;9.820;2022-12-13T14:21:59;-0.70;99.90
8872;DHT22;4472;52.092;9.820;2022-12-13T14:24:54;-0.80;99.90
8872;DHT22;4472;52.092;9.820;2022-12-13T14:27:44;-0.70;99.90
8872;DHT22;4472;52.092;9.820;2022-12-13T14:30:33;-1.00;99.90
8872;DHT22;4472;52.092;9.820;2022-12-13T14:33:23;-1.20;99.90
8872;DHT22;4472;52.092;9.820;2022-12-13T14:36:16;-1.20;99.90
8872;DHT22;4472;52.092;9.820;2022-12-13T14:39:13;-1.40;99.90
8872;DHT22;4472;52.092;9.820;2022-12-13T14:42:13;-0.40;99.90
8872;DHT22;4472;52.092;9.820;2022-12-13T14:45:13;-1.50;99.90
8872;DHT22;4472;52.092;9.820;2022-12-13T14:48:04;-1.60;99.90
8872;DHT22;4472;52.092;9.820;2022-12-13T14:50:52;-1.70;99.90
8872;DHT22;4472;52.092;9.820;2022-12-13T14:53:41;-1.80;99.90
8872;DHT22;4472;52.092;9.820;2022-12-13T14:56:29;-1.90;99.90
8872;DHT22;4472;52.092;9.820;2022-12-13T14:59:16;-1.90;99.90
8872;DHT22;4472;52.092;9.820;2022-12-13T15:02:04;-2.00;99.90
8872;DHT22;4472;52.092;9.820;2022-12-13T15:04:52;-2.00;99.90
8872;DHT22;4472;52.092;9.820;2022-12-13T15:07:41;-2.10;99.90
8872;DHT22;4472;52.092;9.820;2022-12-13T15:10:36;-2.20;99.90
8872;DHT22;4472;52.092;9.820;2022-12-13T15:13:27;-2.20;99.90
8872;DHT22;4472;52.092;9.820;2022-12-13T15:16:20;-2.30;99.90
8872;DHT22;4472;52.092;9.820;2022-12-13T15:19:13;-2.40;99.90
8872;DHT22;4472;52.092;9.820;2022-12-13T15:22:02;-2.40;99.90
8872;DHT22;4472;52.092;9.820;2022-12-13T15:24:51;-2.50;99.90
8872;DHT22;4472;52.092;9.820;2022-12-13T15:27:40;-2.60;99.90
8872;DHT22;4472;52.092;9.820;2022-12-13T15:30:29;-2.60;99.90
8872;DHT22;4472;52.092;9.820;2022-12-13T15:33:20;-2.70;99.90
8872;DHT22;4472;52.092;9.820;2022-12-13T15:36:11;-2.70;99.90
8872;DHT22;4472;52.092;9.820;2022-12-13T15:39:00;-2.70;99.90
8872;DHT22;4472;52.092;9.820;2022-12-13T15:41:48;-2.80;99.90
8872;DHT22;4472;52.092;9.820;2022-12-13T15:44:43;-2.80;99.90
8872;DHT22;4472;52.092;9.820;2022-12-13T15:47:31;-2.90;99.90
8872;DHT22;4472;52.092;9.820;2022-12-13T15:50:31;-3.00;99.90
8872;DHT22;4472;52.092;9.820;2022-12-13T15:53:22;-3.00;99.90
8872;DHT22;4472;52.092;9.820;2022-12-13T15:56:30;-3.00;99.90
8872;DHT22;4472;52.092;9.820;2022-12-13T15:59:24;-3.10;99.90
8872;DHT22;4472;52.092;9.820;2022-12-13T16:02:17;-3.10;99.90
8872;DHT22;4472;52.092;9.820;2022-12-13T16:05:08;-3.10;99.90
8872;DHT22;4472;52.092;9.820;2022-12-13T16:07:57;-3.20;99.90
8872;DHT22;4472;52.092;9.820;2022-12-13T16:10:48;-3.20;99.90
8872;DHT22;4472;52.092;9.820;2022-12-13T16:13:36;-3.20;99.90
8872;DHT22;4472;52.092;9.820;2022-12-13T16:16:26;-0.90;99.90
8872;DHT22;4472;52.092;9.820;2022-12-13T16:19:18;-3.30;99.90
8872;DHT22;4472;52.092;9.820;2022-12-13T16:22:05;-3.30;99.90
8872;DHT22;4472;52.092;9.820;2022-12-13T16:24:53;-3.30;99.90
8872;DHT22;4472;52.092;9.820;2022-12-13T16:27:41;-3.40;99.90
8872;DHT22;4472;52.092;9.820;2022-12-13T16:30:52;-3.40;99.90
8872;DHT22;4472;52.092;9.820;2022-12-13T16:33:41;-3.40;99.90
8872;DHT22;4472;52.092;9.820;2022-12-13T16:36:31;-3.50;99.90
8872;DHT22;4472;52.092;9.820;2022-12-13T16:39:18;-3.50;99.90
8872;DHT22;4472;52.092;9.820;2022-12-13T16:42:05;-3.50;99.90
8872;DHT22;4472;52.092;9.820;2022-12-13T16:44:53;-3.50;99.90
8872;DHT22;4472;52.092;9.820;2022-12-13T16:47:42;-3.60;99.90
8872;DHT22;4472;52.092;9.820;2022-12-13T16:50:29;-3.60;99.90
8872;DHT22;4472;52.092;9.820;2022-12-13T16:53:18;-3.60;99.90
8872;DHT22;4472;52.092;9.820;2022-12-13T16:56:06;-3.60;99.90
8872;DHT22;4472;52.092;9.820;2022-12-13T16:58:56;-3.60;99.90
8872;DHT22;4472;52.092;9.820;2022-12-13T17:01:44;-3.60;99.90
8872;DHT22;4472;52.092;9.820;2022-12-13T17:04:31;-3.60;99.90
8872;DHT22;4472;52.092;9.820;2022-12-13T17:07:18;-3.70;99.90
8872;DHT22;4472;52.092;9.820;2022-12-13T17:10:08;-3.70;99.90
8872;DHT22;4472;52.092;9.820;2022-12-13T17:12:56;-3.70;99.90
8872;DHT22;4472;52.092;9.820;2022-12-13T17:15:43;-3.80;99.90
8872;DHT22;4472;52.092;9.820;2022-12-13T17:18:30;-3.80;99.90
8872;DHT22;4472;52.092;9.820;2022-12-13T17:21:17;-3.80;99.90
8872;DHT22;4472;52.092;9.820;2022-12-13T17:24:05;-3.90;99.90
8872;DHT22;4472;52.092;9.820;2022-12-13T17:26:54;-3.90;99.90
8872;DHT22;4472;52.092;9.820;2022-12-13T17:29:42;-4.00;99.90
8872;DHT22;4472;52.092;9.820;2022-12-13T17:32:29;-4.10;99.90
8872;DHT22;4472;52.092;9.820;2022-12-13T17:35:16;-4.20;99.90
8872;DHT22;4472;52.092;9.820;2022-12-13T17:38:04;-4.30;99.90
8872;DHT22;4472;52.092;9.820;2022-12-13T17:40:51;-4.30;99.90
8872;DHT22;4472;52.092;9.820;2022-12-13T17:43:40;-4.40;99.90
8872;DHT22;4472;52.092;9.820;2022-12-13T17:46:27;-4.40;99.90
8872;DHT22;4472;52.092;9.820;2022-12-13T17:49:15;-4.50;99.90
8872;DHT22;4472;52.092;9.820;2022-12-13T17:52:02;-4.50;99.90
8872;DHT22;4472;52.092;9.820;2022-12-13T17:54:50;-4.50;99.90
8872;DHT22;4472;52.092;9.820;2022-12-13T17:57:37;-4.40;99.90
8872;DHT22;4472;52.092;9.820;2022-12-13T18:00:26;-4.40;99.90
8872;DHT22;4472;52.092;9.820;2022-12-13T18:03:13;-4.30;99.90
8872;DHT22;4472;52.092;9.820;2022-12-13T18:06:01;-4.30;99.90
8872;DHT22;4472;52.092;9.820;2022-12-13T18:08:48;-4.30;99.90
8872;DHT22;4472;52.092;9.820;2022-12-13T18:11:35;-4.20;99.90
8872;DHT22;4472;52.092;9.820;2022-12-13T18:14:23;-4.20;99.90
8872;DHT22;4472;52.092;9.820;2022-12-13T18:17:12;-2.90;99.90
8872;DHT22;4472;52.092;9.820;2022-12-13T18:19:59;-4.20;99.90
8872;DHT22;4472;52.092;9.820;2022-12-13T18:22:47;-4.10;99.90
8872;DHT22;4472;52.092;9.820;2022-12-13T18:25:35;-4.10;99.90
8872;DHT22;4472;52.092;9.820;2022-12-13T18:28:22;-4.10;99.90
8872;DHT22;4472;52.092;9.820;2022-12-13T18:31:12;-4.20;99.90
8872;DHT22;4472;52.092;9.820;2022-12-13T18:34:01;-4.30;99.90
8872;DHT22;4472;52.092;9.820;2022-12-13T18:36:48;-4.40;99.90
8872;DHT22;4472;52.092;9.820;2022-12-13T18:39:35;-4.40;99.90
8872;DHT22;4472;52.092;9.820;2022-12-13T18:42:23;-4.50;99.90
8872;DHT22;4472;52.092;9.820;2022-12-13T18:45:10;-4.60;99.90
8872;DHT22;4472;52.092;9.820;2022-12-13T18:47:57;-4.70;99.90
8872;DHT22;4472;52.092;9.820;2022-12-13T18:50:46;-4.80;99.90
8872;DHT22;4472;52.092;9.820;2022-12-13T18:53:34;-4.90;99.90